Time;durP1;ratioP1;P1;durP2;ratioP2;P2;SDS_P1;SDS_P2;PMS_P1;PMS_P2;Temp;Humidity;BMP_temperature;BMP_pressure;BME280_temperature;BME280_humidity;BME280_pressure;Samples;Min_cycle;Max_cycle;Signal;HPM_P1;HPM_P2
2022/08/31 00:05:13;;;;;;;1.17;0.10;;;15.60;99.90;;;;;;5092689;28;20051;-67
2022/08/31 00:07:39;;;;;;;1.33;0.10;;;15.60;99.90;;;;;;5092910;28;20035;-68
2022/08/31 00:10:13;;;;;;;2.25;0.10;;;15.50;99.90;;;;;;5078516;27;20136;-67
2022/08/31 00:12:46;;;;;;;0.20;0.10;;;15.50;99.90;;;;;;5096621;27;20149;-68
2022/08/31 00:15:15;;;;;;;1.02;0.10;;;15.50;99.90;;;;;;5096285;27;20108;-68
2022/08/31 00:17:42;;;;;;;1.83;0.00;;;15.50;99.90;;;;;;5079304;27;20061;-68
2022/08/31 00:20:11;;;;;;;0.43;0.00;;;15.40;99.90;;;;;;5096237;27;20043;-67
2022/08/31 00:22:37;;;;;;;0.43;0.10;;;15.40;99.90;;;;;;5079938;27;20302;-67
2022/08/31 00:25:03;;;;;;;0.60;0.10;;;15.40;99.90;;;;;;5096215;27;20136;-68
2022/08/31 00:27:29;;;;;;;1.77;0.10;;;15.40;99.90;;;;;;5079596;27;20031;-68
2022/08/31 00:29:55;;;;;;;0.32;0.10;;;15.40;99.90;;;;;;5096534;27;20039;-68
2022/08/31 00:32:20;;;;;;;1.13;0.10;;;15.40;99.90;;;;;;5095736;27;20561;-68
2022/08/31 00:34:46;;;;;;;0.70;0.10;;;15.40;99.90;;;;;;5096032;27;20081;-67
2022/08/31 00:37:11;;;;;;;1.17;0.10;;;15.40;99.90;;;;;;5096757;27;20124;-67
2022/08/31 00:39:37;;;;;;;6.97;0.10;;;15.40;99.90;;;;;;5096133;27;20043;-68
2022/08/31 00:42:05;;;;;;;1.45;0.10;;;15.40;99.90;;;;;;5079549;27;20555;-68
2022/08/31 00:44:30;;;;;;;2.15;0.10;;;15.40;99.90;;;;;;5079066;27;20047;-67
2022/08/31 00:46:56;;;;;;;0.75;0.10;;;15.40;99.90;;;;;;5095484;27;20447;-68
2022/08/31 00:49:29;;;;;;;0.70;0.10;;;15.40;99.90;;;;;;5079567;27;20039;-68
2022/08/31 00:52:09;;;;;;;0.50;0.08;;;15.40;99.90;;;;;;5096246;27;20027;-68
2022/08/31 00:54:45;;;;;;;0.20;0.10;;;15.40;99.90;;;;;;5094886;27;20094;-67
2022/08/31 00:57:12;;;;;;;0.73;0.10;;;15.40;99.90;;;;;;5095955;27;20050;-68
2022/08/31 00:59:40;;;;;;;2.15;0.38;;;15.40;99.90;;;;;;5063093;27;20231;-67
2022/08/31 01:02:06;;;;;;;2.03;0.03;;;15.40;99.90;;;;;;5096160;27;20117;-68
2022/08/31 01:04:32;;;;;;;0.32;0.00;;;15.40;99.90;;;;;;5094841;27;20047;-68
2022/08/31 01:06:58;;;;;;;1.48;0.00;;;15.30;99.90;;;;;;5078211;28;20046;-69
2022/08/31 01:09:28;;;;;;;1.45;0.00;;;15.40;99.90;;;;;;5094296;27;20152;-68
2022/08/31 01:11:54;;;;;;;1.85;0.10;;;15.40;99.90;;;;;;5095120;27;20388;-68
2022/08/31 01:14:20;;;;;;;0.40;0.10;;;15.40;99.90;;;;;;5061721;28;20051;-67
2022/08/31 01:16:51;;;;;;;2.22;0.10;;;15.40;99.90;;;;;;5095398;28;20047;-68
2022/08/31 01:19:32;;;;;;;0.85;0.00;;;15.40;99.90;;;;;;5095583;28;20652;-69
2022/08/31 01:22:11;;;;;;;0.75;0.00;;;15.40;99.90;;;;;;5062059;28;20134;-68
2022/08/31 01:24:40;;;;;;;0.32;0.08;;;15.40;99.90;;;;;;5094675;28;20054;-68
2022/08/31 01:27:06;;;;;;;0.70;0.08;;;15.30;99.90;;;;;;5078287;28;20179;-68
2022/08/31 01:29:33;;;;;;;1.15;0.10;;;15.30;99.90;;;;;;5094685;28;20570;-68
2022/08/31 01:32:00;;;;;;;0.38;0.10;;;15.30;99.90;;;;;;5094845;28;20130;-68
2022/08/31 01:34:26;;;;;;;0.65;0.00;;;15.30;99.90;;;;;;5077951;28;20139;-68
2022/08/31 01:36:52;;;;;;;0.73;0.10;;;15.40;99.90;;;;;;5062164;28;20039;-69
2022/08/31 01:39:19;;;;;;;2.03;0.05;;;15.40;99.90;;;;;;5094434;28;20144;-67
2022/08/31 01:41:45;;;;;;;1.10;0.10;;;15.40;99.90;;;;;;5095565;28;20420;-68
2022/08/31 01:44:17;;;;;;;1.13;0.10;;;15.40;99.90;;;;;;5078758;28;20696;-69
2022/08/31 01:46:43;;;;;;;2.92;0.10;;;15.30;99.90;;;;;;5095931;28;20051;-68
2022/08/31 01:49:09;;;;;;;0.50;0.05;;;15.30;99.90;;;;;;5078705;28;20302;-68
2022/08/31 01:51:35;;;;;;;1.40;0.10;;;15.30;99.90;;;;;;5094280;28;20043;-68
2022/08/31 01:54:02;;;;;;;0.52;0.10;;;15.30;99.90;;;;;;5077560;28;20039;-68
2022/08/31 01:56:31;;;;;;;1.42;0.20;;;15.30;99.90;;;;;;5094568;28;20043;-68
2022/08/31 01:58:57;;;;;;;0.25;0.10;;;15.30;99.90;;;;;;5094738;28;20347;-68
2022/08/31 02:01:27;;;;;;;1.23;0.10;;;15.30;99.90;;;;;;5078473;28;20049;-68
2022/08/31 02:03:53;;;;;;;0.85;0.10;;;15.30;99.90;;;;;;5095017;28;20046;-68
2022/08/31 02:06:19;;;;;;;1.25;0.10;;;15.30;99.90;;;;;;5094785;28;20047;-68
2022/08/31 02:08:44;;;;;;;0.40;0.10;;;15.30;99.90;;;;;;5095227;28;20043;-68
2022/08/31 02:11:10;;;;;;;1.00;0.10;;;15.30;99.90;;;;;;5077543;28;20123;-68
2022/08/31 02:13:36;;;;;;;1.90;0.10;;;15.30;99.90;;;;;;5094932;28;20937;-67
2022/08/31 02:16:03;;;;;;;0.60;0.10;;;15.20;99.90;;;;;;5078027;28;20421;-68
2022/08/31 02:18:29;;;;;;;0.55;0.10;;;15.30;99.90;;;;;;5094992;28;20047;-68
2022/08/31 02:20:55;;;;;;;0.57;0.10;;;15.20;99.90;;;;;;5097060;27;20047;-68
2022/08/31 02:23:21;;;;;;;0.95;0.10;;;15.20;99.90;;;;;;5098499;27;20069;-68
2022/08/31 02:25:46;;;;;;;1.48;0.10;;;15.10;99.90;;;;;;5097899;27;20035;-69
2022/08/31 02:28:13;;;;;;;1.33;0.10;;;15.10;99.90;;;;;;5080980;27;20461;-68
2022/08/31 02:30:40;;;;;;;1.55;0.10;;;15.10;99.90;;;;;;5081858;27;20228;-67
2022/08/31 02:33:06;;;;;;;1.45;0.13;;;15.10;99.90;;;;;;5099062;27;20257;-69
2022/08/31 02:35:33;;;;;;;0.90;0.10;;;15.00;99.90;;;;;;5097868;27;20067;-68
2022/08/31 02:37:59;;;;;;;1.55;0.10;;;15.00;99.90;;;;;;5080958;27;20121;-67
2022/08/31 02:40:25;;;;;;;0.98;0.00;;;15.00;99.90;;;;;;5063271;27;20114;-68
2022/08/31 02:42:50;;;;;;;3.03;0.10;;;15.10;99.90;;;;;;5080191;27;20825;-68
2022/08/31 02:45:16;;;;;;;0.40;0.10;;;15.10;99.90;;;;;;5064104;27;20332;-68
2022/08/31 02:47:42;;;;;;;0.35;0.10;;;15.10;99.90;;;;;;5098260;27;20039;-68
2022/08/31 02:50:08;;;;;;;1.27;0.10;;;15.10;99.90;;;;;;5097017;27;20504;-69
2022/08/31 02:52:34;;;;;;;0.57;0.13;;;15.10;99.90;;;;;;5097300;27;20050;-68
2022/08/31 02:55:00;;;;;;;1.05;0.10;;;15.10;99.90;;;;;;5097308;27;20235;-69
2022/08/31 02:57:25;;;;;;;0.55;0.10;;;15.10;99.90;;;;;;5097252;27;20520;-68
2022/08/31 02:59:51;;;;;;;3.78;0.17;;;15.10;99.90;;;;;;5080537;27;20043;-68
2022/08/31 03:02:17;;;;;;;0.47;0.10;;;15.10;99.90;;;;;;5080465;27;20051;-69
2022/08/31 03:04:43;;;;;;;1.13;0.10;;;15.10;99.90;;;;;;5096617;27;20209;-68
2022/08/31 03:07:08;;;;;;;0.50;0.10;;;15.00;99.90;;;;;;5079928;27;20302;-69
2022/08/31 03:09:35;;;;;;;0.43;0.10;;;15.00;99.90;;;;;;5080129;27;20039;-68
2022/08/31 03:12:00;;;;;;;1.60;0.10;;;15.00;99.90;;;;;;5096935;27;20051;-69
2022/08/31 03:14:26;;;;;;;0.60;0.10;;;14.90;99.90;;;;;;5079713;27;20486;-68
2022/08/31 03:16:53;;;;;;;1.10;0.10;;;14.80;99.90;;;;;;5097207;27;20058;-67
2022/08/31 03:19:19;;;;;;;0.68;0.10;;;14.80;99.90;;;;;;5064105;27;20333;-68
2022/08/31 03:21:45;;;;;;;0.50;0.10;;;14.80;99.90;;;;;;5097419;27;20546;-69
2022/08/31 03:24:13;;;;;;;1.00;0.10;;;14.70;99.90;;;;;;5096321;27;20164;-68
2022/08/31 03:26:39;;;;;;;1.05;0.10;;;14.70;99.90;;;;;;5096575;27;20054;-68
2022/08/31 03:29:06;;;;;;;1.05;0.20;;;14.70;99.90;;;;;;5096499;27;20452;-69
2022/08/31 03:31:31;;;;;;;0.68;0.10;;;14.70;99.90;;;;;;5096317;27;20047;-68
2022/08/31 03:33:58;;;;;;;1.88;0.28;;;14.60;99.90;;;;;;5095723;27;20043;-68
2022/08/31 03:36:23;;;;;;;1.25;0.20;;;14.60;99.90;;;;;;5079178;27;20050;-68
2022/08/31 03:38:49;;;;;;;0.60;0.20;;;14.50;99.90;;;;;;5095805;27;20408;-68
2022/08/31 03:41:20;;;;;;;0.52;0.20;;;14.50;99.90;;;;;;5096455;27;20504;-69
2022/08/31 03:43:46;;;;;;;1.25;0.20;;;14.40;99.90;;;;;;5114859;27;20130;-68
2022/08/31 03:46:12;;;;;;;0.22;0.15;;;14.40;99.90;;;;;;5079696;27;20530;-68
2022/08/31 03:48:37;;;;;;;0.70;0.30;;;14.30;99.90;;;;;;5096054;27;20039;-69
2022/08/31 03:51:03;;;;;;;1.15;0.30;;;14.30;99.90;;;;;;5096514;27;20699;-68
2022/08/31 03:53:29;;;;;;;0.90;0.20;;;14.10;99.90;;;;;;5079462;27;20769;-68
2022/08/31 03:56:00;;;;;;;0.40;0.20;;;14.10;99.90;;;;;;5078087;27;20503;-68
2022/08/31 03:58:28;;;;;;;1.13;0.20;;;14.10;99.90;;;;;;5063444;27;20294;-69
2022/08/31 04:00:53;;;;;;;1.10;0.25;;;14.00;99.90;;;;;;5079189;27;20053;-68
2022/08/31 04:03:19;;;;;;;1.13;0.20;;;14.00;99.90;;;;;;5079098;27;20070;-69
2022/08/31 04:05:45;;;;;;;1.63;0.20;;;14.10;99.90;;;;;;5078928;27;20460;-68
2022/08/31 04:08:11;;;;;;;0.52;0.17;;;14.10;99.90;;;;;;5079294;27;20039;-68
2022/08/31 04:10:40;;;;;;;1.10;0.30;;;14.20;99.90;;;;;;5078422;27;20547;-68
2022/08/31 04:13:05;;;;;;;0.80;0.20;;;14.20;99.90;;;;;;5097136;27;20659;-69
2022/08/31 04:15:32;;;;;;;0.40;0.20;;;14.10;99.90;;;;;;5097170;27;20046;-68
2022/08/31 04:17:59;;;;;;;1.00;0.20;;;14.20;99.90;;;;;;5080140;27;20079;-69
2022/08/31 04:20:25;;;;;;;3.20;0.20;;;14.20;99.90;;;;;;5079609;27;20039;-69
2022/08/31 04:22:50;;;;;;;1.08;0.20;;;14.20;99.90;;;;;;5080222;27;20125;-68
2022/08/31 04:25:16;;;;;;;1.98;0.20;;;14.20;99.90;;;;;;5095856;27;20499;-69
2022/08/31 04:27:42;;;;;;;0.65;0.20;;;14.20;99.90;;;;;;5078921;27;20411;-69
2022/08/31 04:30:08;;;;;;;1.13;0.20;;;14.10;99.90;;;;;;5078606;27;20357;-68
2022/08/31 04:32:34;;;;;;;1.75;0.20;;;14.20;99.90;;;;;;5077930;27;20035;-68
2022/08/31 04:35:00;;;;;;;1.42;0.20;;;14.20;99.90;;;;;;5094182;27;20054;-67
2022/08/31 04:37:26;;;;;;;0.85;0.20;;;14.20;99.90;;;;;;5044166;27;20103;-68
2022/08/31 04:39:55;;;;;;;1.70;0.22;;;14.20;99.90;;;;;;5060484;27;20274;-67
2022/08/31 04:42:21;;;;;;;0.85;0.20;;;14.20;99.90;;;;;;5061570;27;20050;-68
2022/08/31 04:44:47;;;;;;;1.33;0.20;;;14.20;99.90;;;;;;5077103;27;20047;-68
2022/08/31 04:47:12;;;;;;;0.80;0.20;;;14.20;99.90;;;;;;5077340;27;20493;-68
2022/08/31 04:49:38;;;;;;;1.00;0.20;;;14.10;99.90;;;;;;5060036;27;20113;-68
2022/08/31 04:52:05;;;;;;;0.70;0.20;;;14.10;99.90;;;;;;5077347;27;20129;-68
2022/08/31 04:54:31;;;;;;;1.52;0.20;;;14.10;99.90;;;;;;5077152;27;20050;-68
2022/08/31 04:56:58;;;;;;;0.77;0.20;;;14.10;99.90;;;;;;5094821;27;20551;-68
2022/08/31 04:59:26;;;;;;;1.38;0.20;;;14.10;99.90;;;;;;5077989;27;20042;-68
2022/08/31 05:01:52;;;;;;;0.68;0.20;;;14.20;99.90;;;;;;5077375;27;20418;-69
2022/08/31 05:04:18;;;;;;;1.25;0.20;;;14.20;99.90;;;;;;5093551;27;20627;-70
2022/08/31 05:06:45;;;;;;;2.40;0.20;;;14.20;99.90;;;;;;5094074;27;20050;-69
2022/08/31 05:09:15;;;;;;;0.43;0.20;;;14.20;99.90;;;;;;5094203;27;20389;-70
2022/08/31 05:11:41;;;;;;;2.30;0.20;;;14.20;99.90;;;;;;5061467;27;20194;-70
2022/08/31 05:14:07;;;;;;;0.68;0.20;;;14.20;99.90;;;;;;5094867;27;20504;-70
2022/08/31 05:16:36;;;;;;;0.80;0.17;;;14.10;99.90;;;;;;5077985;27;20481;-70
2022/08/31 05:19:02;;;;;;;1.50;0.30;;;14.10;99.90;;;;;;5095940;28;20378;-70
2022/08/31 05:21:30;;;;;;;2.90;0.20;;;14.20;99.90;;;;;;5077909;28;20076;-70
2022/08/31 05:23:59;;;;;;;1.55;0.20;;;14.20;99.90;;;;;;5095569;28;20051;-70
2022/08/31 05:26:28;;;;;;;1.48;0.20;;;14.20;99.90;;;;;;5095433;28;20118;-70
2022/08/31 05:28:55;;;;;;;0.93;0.28;;;14.20;99.90;;;;;;5111730;28;20043;-70
2022/08/31 05:31:21;;;;;;;1.10;0.30;;;14.20;99.90;;;;;;5078257;28;20108;-70
2022/08/31 05:33:47;;;;;;;1.52;0.20;;;14.30;99.90;;;;;;5077028;28;20050;-70
2022/08/31 05:36:13;;;;;;;1.77;0.20;;;14.30;99.90;;;;;;5094783;28;20043;-71
2022/08/31 05:38:40;;;;;;;2.97;0.28;;;14.40;99.90;;;;;;5095433;28;20043;-70
2022/08/31 05:41:06;;;;;;;1.40;0.25;;;14.40;99.90;;;;;;5078383;28;20447;-70
2022/08/31 05:43:33;;;;;;;2.47;0.30;;;14.60;99.90;;;;;;5061996;28;20244;-70
2022/08/31 05:45:59;;;;;;;0.70;0.20;;;15.00;99.90;;;;;;5094756;28;20215;-69
2022/08/31 05:48:26;;;;;;;0.90;0.30;;;15.40;99.90;;;;;;5094850;28;20635;-69
2022/08/31 05:50:53;;;;;;;1.75;0.20;;;15.70;99.90;;;;;;5095011;28;20070;-69
2022/08/31 05:53:19;;;;;;;0.70;0.20;;;15.90;99.90;;;;;;5078387;28;20476;-70
2022/08/31 05:55:44;;;;;;;1.67;0.30;;;16.20;99.90;;;;;;5097389;27;20047;-70
2022/08/31 05:58:11;;;;;;;1.80;0.22;;;16.40;99.90;;;;;;5081378;27;20035;-70
2022/08/31 06:00:38;;;;;;;3.25;0.30;;;16.60;99.90;;;;;;5098343;27;20059;-70
2022/08/31 06:03:04;;;;;;;1.67;0.40;;;16.80;99.90;;;;;;5098037;27;20343;-71
2022/08/31 06:05:30;;;;;;;0.90;0.25;;;16.90;99.90;;;;;;5097725;27;20577;-71
2022/08/31 06:07:55;;;;;;;2.33;0.30;;;16.90;99.90;;;;;;5081353;27;20043;-71
2022/08/31 06:10:21;;;;;;;1.50;0.20;;;17.00;99.90;;;;;;5097440;27;20070;-70
2022/08/31 06:12:47;;;;;;;0.50;0.20;;;17.10;99.90;;;;;;5097755;27;20112;-71
2022/08/31 06:15:15;;;;;;;1.77;0.20;;;17.20;99.90;;;;;;5097627;27;20541;-70
2022/08/31 06:17:41;;;;;;;1.50;0.20;;;17.30;99.90;;;;;;5097154;27;20146;-71
2022/08/31 06:20:08;;;;;;;2.88;0.20;;;17.40;99.90;;;;;;5097666;27;20047;-70
2022/08/31 06:22:35;;;;;;;0.93;0.20;;;17.50;99.90;;;;;;5098045;27;20512;-71
2022/08/31 06:25:01;;;;;;;0.40;0.10;;;17.50;99.90;;;;;;5097955;27;20119;-69
2022/08/31 06:27:28;;;;;;;0.30;0.10;;;17.60;99.90;;;;;;5097700;27;20088;-69
2022/08/31 06:29:53;;;;;;;2.55;0.20;;;17.70;99.90;;;;;;5080853;27;21021;-69
2022/08/31 06:32:19;;;;;;;0.90;0.20;;;17.80;99.90;;;;;;5080918;27;20097;-68
2022/08/31 06:34:45;;;;;;;0.73;0.20;;;17.90;99.90;;;;;;5081187;27;20039;-69
2022/08/31 06:37:11;;;;;;;4.53;0.30;;;17.90;99.90;;;;;;5064860;27;20043;-68
2022/08/31 06:39:37;;;;;;;2.65;0.20;;;18.00;99.90;;;;;;5097971;27;20050;-68
2022/08/31 06:42:03;;;;;;;0.30;0.10;;;18.20;99.90;;;;;;5097585;27;20046;-70
2022/08/31 06:44:29;;;;;;;1.88;0.10;;;18.40;99.90;;;;;;5063384;27;20411;-68
2022/08/31 06:46:56;;;;;;;0.85;0.10;;;18.50;99.90;;;;;;5098156;27;20047;-68
2022/08/31 06:49:22;;;;;;;1.48;0.20;;;18.60;99.90;;;;;;5097803;27;20035;-68
2022/08/31 06:51:49;;;;;;;1.10;0.10;;;18.80;99.90;;;;;;5098334;27;20047;-69
2022/08/31 06:54:18;;;;;;;1.45;0.10;;;18.80;99.90;;;;;;5097806;27;20039;-68
2022/08/31 06:56:44;;;;;;;0.38;0.10;;;19.20;99.90;;;;;;5064553;27;20366;-69
2022/08/31 06:59:11;;;;;;;1.27;0.20;;;19.30;99.90;;;;;;5097693;27;20039;-69
2022/08/31 07:01:39;;;;;;;1.23;0.20;;;19.40;99.90;;;;;;5098241;27;20138;-70
2022/08/31 07:04:07;;;;;;;0.98;0.10;;;19.60;99.90;;;;;;5097202;27;20075;-68
2022/08/31 07:06:39;;;;;;;1.02;0.10;;;19.60;99.90;;;;;;5096707;27;20043;-68
2022/08/31 07:09:09;;;;;;;2.10;0.10;;;19.70;99.90;;;;;;5097333;27;20050;-68
2022/08/31 07:11:38;;;;;;;1.15;0.10;;;19.80;99.90;;;;;;5079193;27;20043;-69
2022/08/31 07:14:06;;;;;;;0.60;0.10;;;20.00;99.90;;;;;;5096061;27;20057;-69
2022/08/31 07:16:31;;;;;;;2.17;0.10;;;20.00;99.90;;;;;;5096125;27;20043;-69
2022/08/31 07:19:02;;;;;;;0.88;0.20;;;19.60;99.90;;;;;;5096359;27;20115;-68
2022/08/31 07:21:30;;;;;;;0.98;0.10;;;20.00;99.90;;;;;;5062690;27;20051;-69
2022/08/31 07:23:58;;;;;;;4.20;0.30;;;20.20;99.90;;;;;;5078208;27;20046;-69
2022/08/31 07:26:28;;;;;;;2.33;0.28;;;20.10;99.90;;;;;;5096064;27;20376;-68
2022/08/31 07:28:55;;;;;;;1.45;0.20;;;20.30;99.90;;;;;;5079260;27;20417;-69
2022/08/31 07:31:25;;;;;;;0.60;0.10;;;20.50;99.90;;;;;;5096058;27;20046;-69
2022/08/31 07:33:54;;;;;;;2.17;0.10;;;20.70;99.90;;;;;;5095553;27;20043;-69
2022/08/31 07:36:21;;;;;;;1.20;0.10;;;20.60;99.90;;;;;;5095023;27;20046;-69
2022/08/31 07:44:17;;;;;;;0.43;0.10;;;21.10;99.90;;;;;;5095403;27;20123;-69
2022/08/31 07:46:44;;;;;;;0.60;0.10;;;21.10;99.90;;;;;;5062341;27;20543;-69
2022/08/31 07:49:12;;;;;;;0.57;0.10;;;21.20;99.90;;;;;;5078902;27;20122;-66
2022/08/31 07:51:50;;;;;;;0.65;0.10;;;21.30;99.90;;;;;;5095918;27;20042;-66
2022/08/31 07:54:22;;;;;;;1.05;0.10;;;21.40;99.90;;;;;;5112944;27;20035;-68
2022/08/31 07:56:50;;;;;;;0.57;0.10;;;21.20;99.90;;;;;;5095381;27;20525;-67
2022/08/31 07:59:18;;;;;;;2.13;0.10;;;21.10;99.90;;;;;;5095916;27;20284;-67
2022/08/31 08:01:44;;;;;;;0.50;0.10;;;21.30;99.90;;;;;;5095319;27;20039;-67
2022/08/31 08:04:14;;;;;;;0.82;0.10;;;21.20;99.90;;;;;;5077626;27;20429;-67
2022/08/31 08:06:40;;;;;;;0.95;0.10;;;21.60;99.90;;;;;;5078121;27;20050;-67
2022/08/31 08:09:06;;;;;;;4.28;0.20;;;21.70;99.90;;;;;;5078054;27;20859;-66
2022/08/31 08:11:40;;;;;;;1.80;0.10;;;21.90;99.90;;;;;;5094524;27;20055;-67
2022/08/31 08:14:06;;;;;;;0.22;0.00;;;21.80;99.90;;;;;;5094584;27;20181;-67
2022/08/31 08:16:32;;;;;;;0.57;0.00;;;22.00;99.90;;;;;;5093971;27;20050;-67
2022/08/31 08:18:58;;;;;;;1.08;0.10;;;22.30;99.90;;;;;;5060460;27;20079;-67
2022/08/31 08:21:24;;;;;;;2.58;0.10;;;22.30;99.90;;;;;;5094462;27;20049;-67
2022/08/31 08:23:50;;;;;;;1.20;0.10;;;22.20;99.90;;;;;;5094553;27;20082;-67
2022/08/31 08:26:16;;;;;;;0.45;0.10;;;22.50;99.90;;;;;;5094503;27;20055;-67
2022/08/31 08:28:41;;;;;;;0.50;0.10;;;22.50;99.90;;;;;;5077640;27;20213;-67
2022/08/31 08:31:16;;;;;;;1.33;0.10;;;22.40;99.90;;;;;;5094506;27;20385;-66
2022/08/31 08:33:43;;;;;;;2.60;0.10;;;22.60;99.90;;;;;;5093641;27;20031;-67
2022/08/31 08:36:09;;;;;;;0.90;0.20;;;22.80;99.90;;;;;;5094368;27;20649;-67
2022/08/31 08:38:38;;;;;;;1.35;0.10;;;23.00;99.90;;;;;;5077705;27;20247;-66
2022/08/31 08:41:13;;;;;;;0.50;0.10;;;23.00;98.90;;;;;;5094207;27;20062;-66
2022/08/31 08:43:41;;;;;;;0.32;0.10;;;23.10;98.70;;;;;;5112583;27;20244;-67
2022/08/31 08:46:09;;;;;;;0.57;0.10;;;23.10;98.60;;;;;;5093750;27;20447;-67
2022/08/31 08:48:40;;;;;;;3.03;0.10;;;23.20;98.90;;;;;;5077092;27;20384;-67
2022/08/31 08:51:12;;;;;;;3.47;0.10;;;23.20;96.60;;;;;;5077241;28;20039;-66
2022/08/31 08:53:41;;;;;;;1.08;0.10;;;23.60;96.10;;;;;;5093801;27;20055;-67
2022/08/31 08:56:10;;;;;;;0.57;0.03;;;23.50;94.00;;;;;;5093766;27;20339;-67
2022/08/31 08:58:39;;;;;;;0.20;0.00;;;23.50;93.60;;;;;;5093526;27;20133;-67
2022/08/31 09:01:10;;;;;;;1.77;0.00;;;23.80;93.50;;;;;;5060928;27;20395;-69
2022/08/31 09:03:58;;;;;;;0.43;0.10;;;24.30;93.00;;;;;;5060409;27;20148;-67
2022/08/31 09:06:41;;;;;;;1.92;0.10;;;24.80;91.30;;;;;;5094016;27;20475;-68
2022/08/31 09:09:16;;;;;;;;;;;24.30;91.10;;;;;;5094667;27;20051;-67
2022/08/31 09:12:07;;;;;;;1.02;0.10;;;24.00;92.20;;;;;;5093563;27;20316;-67
2022/08/31 09:14:57;;;;;;;1.02;0.10;;;23.90;92.10;;;;;;5060423;27;20047;-67
2022/08/31 09:17:43;;;;;;;0.57;0.10;;;23.60;93.10;;;;;;5054187;28;20153;-68
2022/08/31 09:20:11;;;;;;;0.32;0.00;;;24.00;94.00;;;;;;5093587;28;20054;-68
2022/08/31 09:22:49;;;;;;;0.75;0.10;;;24.50;91.70;;;;;;5076974;28;20034;-68
2022/08/31 09:25:32;;;;;;;0.30;0.05;;;24.80;90.30;;;;;;5093694;28;20751;-69
2022/08/31 09:28:06;;;;;;;0.52;0.10;;;25.00;90.70;;;;;;5093852;28;20758;-68
2022/08/31 09:30:44;;;;;;;1.20;0.00;;;25.20;84.30;;;;;;5098943;27;20035;-68
2022/08/31 09:33:17;;;;;;;1.23;0.00;;;25.40;80.40;;;;;;5100468;27;20214;-68
2022/08/31 09:35:44;;;;;;;0.22;0.00;;;25.20;79.20;;;;;;5118464;27;20101;-68
2022/08/31 09:38:24;;;;;;;0.40;0.10;;;25.40;74.00;;;;;;5100416;27;20046;-67
2022/08/31 09:40:51;;;;;;;0.32;0.10;;;25.30;70.10;;;;;;5100369;27;20046;-68
2022/08/31 09:43:36;;;;;;;0.82;0.05;;;25.10;71.80;;;;;;5083190;27;20115;-68
2022/08/31 09:46:07;;;;;;;1.55;0.10;;;25.20;72.20;;;;;;5101108;27;20400;-68
2022/08/31 09:48:55;;;;;;;0.63;0.00;;;24.40;73.80;;;;;;5100188;27;20040;-68
2022/08/31 09:51:27;;;;;;;0.38;0.00;;;23.90;73.60;;;;;;5100098;27;20072;-66
2022/08/31 09:56:54;;;;;;;0.43;0.03;;;23.90;72.40;;;;;;5100138;27;20065;-67
2022/08/31 09:59:40;;;;;;;2.80;0.15;;;24.20;71.50;;;;;;5100114;27;20201;-67
2022/08/31 10:02:25;;;;;;;0.85;0.13;;;23.60;76.50;;;;;;5083337;27;20454;-68
2022/08/31 10:04:54;;;;;;;1.48;0.15;;;23.20;80.40;;;;;;5099579;27;20125;-67
2022/08/31 10:07:40;;;;;;;1.17;0.10;;;23.70;79.30;;;;;;5082608;27;20038;-68
2022/08/31 10:10:12;;;;;;;1.80;0.10;;;24.40;76.90;;;;;;5099761;27;20904;-67
2022/08/31 10:12:52;;;;;;;1.60;0.10;;;24.60;73.60;;;;;;5100251;27;20116;-68
2022/08/31 10:15:32;;;;;;;1.17;0.00;;;24.70;74.10;;;;;;5119092;27;20637;-68
2022/08/31 10:18:10;;;;;;;0.50;0.05;;;25.10;67.20;;;;;;5083181;27;20035;-68
2022/08/31 10:21:03;;;;;;;2.35;0.10;;;24.90;64.40;;;;;;5082827;27;20126;-68
2022/08/31 10:23:35;;;;;;;2.28;0.10;;;24.50;67.50;;;;;;5082918;27;20039;-67
2022/08/31 10:26:09;;;;;;;1.17;0.10;;;24.30;71.10;;;;;;5082726;27;20042;-68
2022/08/31 10:28:41;;;;;;;0.25;0.00;;;24.10;72.30;;;;;;5099852;27;20473;-68
2022/08/31 10:31:23;;;;;;;0.85;0.00;;;24.20;73.80;;;;;;5117569;27;20105;-68
2022/08/31 10:36:40;;;;;;;0.82;0.00;;;25.20;61.70;;;;;;5099783;27;20139;-67
2022/08/31 10:39:33;;;;;;;0.57;0.10;;;25.40;65.10;;;;;;5100059;27;20062;-68
2022/08/31 10:42:04;;;;;;;0.40;0.00;;;25.80;64.60;;;;;;5097173;27;20046;-68
2022/08/31 10:44:35;;;;;;;1.27;0.10;;;25.80;62.50;;;;;;5096517;27;20202;-68
2022/08/31 10:47:04;;;;;;;1.10;0.10;;;25.70;63.00;;;;;;5096970;27;20415;-68
2022/08/31 10:49:34;;;;;;;1.05;0.00;;;25.50;62.70;;;;;;5096421;27;20095;-68
2022/08/31 10:52:32;;;;;;;0.75;0.10;;;25.10;60.60;;;;;;5079614;27;20039;-68
2022/08/31 10:55:13;;;;;;;1.60;0.10;;;25.30;63.00;;;;;;5096417;27;20078;-67
2022/08/31 10:57:51;;;;;;;1.08;0.00;;;25.70;60.20;;;;;;5096334;27;20079;-68
2022/08/31 11:00:40;;;;;;;0.38;0.10;;;25.90;56.80;;;;;;5079489;27;20043;-67
2022/08/31 11:03:12;;;;;;;1.58;0.10;;;26.10;55.90;;;;;;5062663;27;20051;-67
2022/08/31 11:05:44;;;;;;;2.23;0.10;;;26.40;53.50;;;;;;5095527;27;20373;-68
2022/08/31 11:08:29;;;;;;;0.85;0.10;;;26.70;54.00;;;;;;5079262;27;20277;-68
2022/08/31 11:10:58;;;;;;;0.73;0.10;;;27.00;52.00;;;;;;5078904;27;20055;-68
2022/08/31 11:13:37;;;;;;;1.20;0.10;;;26.70;49.50;;;;;;5078806;27;20046;-68
2022/08/31 11:16:21;;;;;;;0.43;0.10;;;27.10;48.90;;;;;;5096291;27;20466;-68
2022/08/31 11:19:06;;;;;;;1.92;0.22;;;27.10;48.00;;;;;;5095899;27;20054;-68
2022/08/31 11:21:52;;;;;;;1.63;0.10;;;27.20;47.70;;;;;;5095941;27;20051;-68
2022/08/31 11:24:50;;;;;;;1.70;0.10;;;27.40;47.80;;;;;;5095322;27;20043;-68
2022/08/31 11:27:19;;;;;;;0.10;0.03;;;27.20;46.20;;;;;;5062799;27;20056;-68
2022/08/31 11:29:55;;;;;;;0.40;0.00;;;27.70;44.50;;;;;;5095862;27;20043;-68
2022/08/31 11:32:44;;;;;;;1.10;0.10;;;27.70;43.70;;;;;;5114037;27;20058;-68
2022/08/31 11:35:11;;;;;;;1.20;0.10;;;27.60;44.80;;;;;;5095985;27;20096;-68
2022/08/31 11:37:53;;;;;;;1.55;0.00;;;27.50;40.60;;;;;;5078900;27;20051;-68
2022/08/31 11:41:11;;;;;;;0.53;0.03;;;27.30;40.50;;;;;;5095383;27;20046;-68
2022/08/31 11:43:47;;;;;;;1.10;0.10;;;27.10;42.10;;;;;;5111317;27;20301;-68
2022/08/31 11:46:25;;;;;;;2.97;0.10;;;26.80;43.90;;;;;;5095181;27;20200;-68
2022/08/31 11:48:52;;;;;;;1.23;0.00;;;27.20;39.10;;;;;;5094766;27;20368;-68
2022/08/31 11:51:46;;;;;;;1.42;0.00;;;27.30;41.10;;;;;;5077997;27;20099;-68
2022/08/31 11:54:25;;;;;;;2.28;0.10;;;27.70;42.80;;;;;;5094583;27;20076;-69
2022/08/31 11:56:55;;;;;;;1.00;0.08;;;28.00;38.40;;;;;;5094994;27;20099;-69
2022/08/31 11:59:30;;;;;;;2.10;0.10;;;27.90;40.40;;;;;;5095183;27;20047;-69
2022/08/31 12:02:00;;;;;;;0.50;0.05;;;28.20;36.50;;;;;;5078125;27;20686;-70
2022/08/31 12:04:29;;;;;;;1.48;0.10;;;28.10;36.00;;;;;;5095150;27;20739;-69
2022/08/31 12:06:58;;;;;;;0.10;0.00;;;28.20;35.00;;;;;;5078432;27;20501;-69
2022/08/31 12:09:36;;;;;;;0.45;0.05;;;28.00;35.20;;;;;;5094608;27;20031;-69
2022/08/31 12:12:23;;;;;;;0.90;0.10;;;27.80;34.70;;;;;;5077724;27;20611;-69
2022/08/31 12:15:17;;;;;;;0.75;0.10;;;28.00;34.00;;;;;;5061397;27;20078;-70
2022/08/31 12:18:07;;;;;;;0.38;0.00;;;28.20;35.20;;;;;;5094728;27;20339;-69
2022/08/31 12:23:53;;;;;;;0.60;0.10;;;28.10;34.10;;;;;;5095333;27;20370;-69
2022/08/31 12:26:40;;;;;;;1.55;0.38;;;27.90;38.60;;;;;;5094356;27;20053;-70
2022/08/31 12:29:25;;;;;;;1.35;0.00;;;27.80;34.30;;;;;;5078178;27;20555;-70
2022/08/31 12:32:18;;;;;;;0.35;0.03;;;28.30;37.10;;;;;;5095116;27;20031;-70
2022/08/31 12:34:55;;;;;;;0.82;0.10;;;28.60;37.50;;;;;;5094150;27;20054;-70
2022/08/31 12:37:25;;;;;;;1.85;0.30;;;28.70;34.20;;;;;;5094487;27;20201;-70
2022/08/31 12:40:24;;;;;;;2.13;0.20;;;28.60;33.80;;;;;;5077178;27;20050;-70
2022/08/31 12:42:58;;;;;;;0.30;0.10;;;28.80;34.60;;;;;;5023299;27;20163;-70
2022/08/31 12:45:51;;;;;;;1.33;0.10;;;29.00;36.40;;;;;;5112805;27;20148;-70
2022/08/31 12:48:20;;;;;;;1.63;0.10;;;28.90;34.90;;;;;;5077423;27;20401;-68
2022/08/31 12:51:13;;;;;;;0.30;0.10;;;28.90;35.00;;;;;;5094279;27;20442;-68
2022/08/31 12:54:07;;;;;;;1.58;0.10;;;28.90;34.70;;;;;;5076742;27;20488;-69
2022/08/31 12:56:33;;;;;;;2.22;0.10;;;28.70;36.20;;;;;;5077233;27;20035;-68
2022/08/31 12:59:07;;;;;;;0.32;0.00;;;28.30;36.90;;;;;;5076997;27;20511;-69
2022/08/31 13:01:40;;;;;;;0.45;0.00;;;28.50;36.70;;;;;;5076648;27;20104;-70
2022/08/31 13:04:06;;;;;;;0.32;0.10;;;28.50;36.90;;;;;;5093263;28;20107;-70
2022/08/31 13:06:35;;;;;;;0.90;0.10;;;28.80;35.00;;;;;;5093944;28;20045;-70
2022/08/31 13:09:02;;;;;;;0.45;0.00;;;28.90;33.80;;;;;;5093878;27;20443;-69
2022/08/31 13:11:37;;;;;;;1.27;0.00;;;29.30;34.10;;;;;;5060540;27;20090;-69
2022/08/31 13:14:12;;;;;;;0.68;0.10;;;29.70;34.00;;;;;;5076452;27;20116;-69
2022/08/31 13:16:43;;;;;;;0.95;0.10;;;29.10;37.50;;;;;;5093948;27;20054;-69
2022/08/31 13:19:24;;;;;;;0.93;0.00;;;29.00;36.50;;;;;;5093318;27;20321;-70
2022/08/31 13:21:59;;;;;;;0.88;0.20;;;29.10;38.80;;;;;;5094045;27;20039;-70
2022/08/31 13:24:32;;;;;;;3.63;0.10;;;29.60;36.60;;;;;;5094207;28;20043;-69